Nearby METAR Reports

 

KBJC - Broomfield/Jeffc, Colorado, USA
Distance from station: N 0mi, 0km
Updated: Thu, 11-Aug-2022 2:45pm MDT
Few Clouds
Few Clouds
 Wind from NNE
Wind: NNE 7 mph , 11 km/h
Temperature: 93°F , 34°C
Dew Point: 46°F , 8°C
Humidity: 20%
Barometer: 30.22 inHg , 1023.4 hPa
Clouds: Few Clouds
Visibility: 10 miles , 16 km
Cloud details: Few Clouds 10000 ft
2022/08/11 20:45 KBJC 112045Z 02006KT 10SM FEW100 34/08 A3022
KEIK - Erie Muni, Colorado, USA
Distance from station: N 5mi, 9km
Updated: Thu, 11-Aug-2022 3:35pm MDT
Clear
Clear
 Wind from E
Wind: E 3 mph , 6 km/h
Temperature: 95°F , 35°C
Dew Point: 43°F , 6°C
Humidity: 16%
Barometer: 30.16 inHg , 1021.3 hPa
Clouds: Clear
Visibility: 10 miles , 16 km
2022/08/11 21:35 KEIK 112135Z AUTO 09003KT 10SM CLR 35/06 A3016 RMK AO2 T03490061 PWINO
 
KBDU - Boulder Muni, Colorado, USA
Distance from station: NW 11mi, 17km
Updated: Thu, 11-Aug-2022 3:35pm MDT
Clear
Clear
 Wind from calm
Wind: Calm
Temperature: 91°F , 33°C
Dew Point: 45°F , 7°C
Humidity: 20%
Barometer: 30.17 inHg , 1021.7 hPa
Clouds: Clear
Visibility: 10 miles , 16 km
2022/08/11 21:35 KBDU 112135Z AUTO 00000KT 10SM CLR 33/07 A3017 RMK AO2
KLMO - Longmont/Vbrand, Colorado, USA
Distance from station: NNW 16mi, 27km
Updated: Thu, 11-Aug-2022 3:35pm MDT
Clear
Clear
 Wind from NE
Wind: NE 5 mph , 7 km/h
Temperature: 97°F , 36°C
Dew Point: 46°F , 8°C
Humidity: 18%
Barometer: 30.17 inHg , 1021.7 hPa
Clouds: Clear
Visibility: 10 miles , 16 km
2022/08/11 21:35 KLMO 112135Z AUTO 05004KT 10SM CLR 36/08 A3017 RMK AO2 T03640075
 
KBKF - Buckley Angb/Den, Colorado, USA
Distance from station: SE 23mi, 37km
Updated: Thu, 11-Aug-2022 2:58pm MDT
Few Clouds
Few Clouds
 Wind from N
Wind: N 6 mph , 9 km/h
Temperature: 95°F , 35°C
Dew Point: 43°F , 6°C
Humidity: 16%
Barometer: 30.20 inHg , 1022.7 hPa
Clouds: Few Clouds
Visibility: 10 miles , 16 km
Cloud details: Few Clouds 9000 ft
Few Clouds 20000 ft
2022/08/11 20:58 KBKF 112058Z 36005KT 10SM FEW090 FEW200 35/06 A3020 RMK AO2A SLP135 T03510064 57018
KDEN - Denver (dia), Colorado, USA
Distance from station: ESE 23mi, 37km
Updated: Thu, 11-Aug-2022 2:53pm MDT
Few Clouds
Few Clouds
 Wind from WNW
Wind: WNW 3 mph , 6 km/h
Temperature: 97°F , 36°C
Dew Point: 41°F , 5°C
Humidity: 14%
Barometer: 30.18 inHg , 1022 hPa
Clouds: Few Clouds
Visibility: 10 miles , 16 km
Cloud details: Few Clouds 10000 ft
Few Clouds 20000 ft
2022/08/11 20:53 KDEN 112053Z 30003KT 10SM FEW100 FEW200 36/05 A3018 RMK AO2 SLP121 TCU DSNT SW-NW T03560050 58019
 
KAPA - Denver/Arapahoe, Colorado, USA
Distance from station: SSE 28mi, 46km
Updated: Thu, 11-Aug-2022 2:53pm MDT
Partly cloudy
Partly cloudy
 Wind from varies
Wind: varies 7 mph , 11 km/h
Temperature: 93°F , 34°C
Dew Point: 43°F , 6°C
Humidity: 17%
Barometer: 30.22 inHg , 1023.4 hPa
Clouds: Partly cloudy
Visibility: 10 miles , 16 km
Cloud details: Few Clouds 10000 ft
Partly cloudy 15000 ft
2022/08/11 20:53 KAPA 112053Z VRB06KT 10SM FEW100 SCT150 34/06 A3022 RMK AO2 SLP142 T03390056 58017
KFNL - Ft Collins/Lovel, Colorado, USA
Distance from station: N 35mi, 57km
Updated: Thu, 11-Aug-2022 2:56pm MDT
Haze, Clear
Haze, Clear
 Wind from varies
Wind: varies 6 mph , 9 km/h
Temperature: 93°F , 34°C
Dew Point: 52°F , 11°C
Humidity: 24%
Barometer: 30.16 inHg , 1021.3 hPa
Summary: Haze
Clouds: Clear
Visibility: 4 miles , 6 km
2022/08/11 20:56 KFNL 112056Z VRB05KT 4SM HZ CLR 34/11 A3016 RMK AO2 SLP139 T03390106 58022
 
K0CO - Berthoud Pass, Colorado, USA
Distance from station: WSW 38mi, 61km
Updated: Thu, 11-Aug-2022 3:35pm MDT
Light rain, Overcast
Light rain, Overcast
 Wind from ESE
Wind: ESE 14 mph , 22 km/h, Gust: 18 mph , 30 km/h
Temperature: 54°F , 12°C
Dew Point: 37°F , 3°C
Humidity: 54%
Barometer: 30.83 inHg , 1044 hPa
Summary: Light rain
Clouds: Overcast
Visibility: 10 miles , 16 km
Cloud details: Partly cloudy 4200 ft
Mostly cloudy 6000 ft
Overcast 8000 ft
2022/08/11 21:35 K0CO 112135Z AUTO 12012G16KT 10SM -RA SCT042 BKN060 OVC080 12/03 A3083 RMK AO2 P0005
KGXY - Greeley/Weld, Colorado, USA
Distance from station: NE 41mi, 66km
Updated: Thu, 11-Aug-2022 2:56pm MDT
Clear
Clear
 Wind from NE
Wind: NE 8 mph , 13 km/h
Temperature: 95°F , 35°C
Dew Point: 48°F , 9°C
Humidity: 20%
Barometer: 30.14 inHg , 1020.7 hPa
Clouds: Clear
Visibility: 10 miles , 16 km
2022/08/11 20:56 KGXY 112056Z 04007KT 10SM CLR 35/09 A3014 RMK AO2 SLP149 T03500089 58023 $